EHWO/WOE METAR and TAF weather

Enter ICAO airport designator
Station Type Date Time Source
EHWO METAR 2019/10/18 06:55 UTC NOAA

EHWO 180655Z AUTO 19009KT 130V250 9999 FEW008 FEW015CB BKN019 BKN023 14/11 Q1002 WHT


Station Type Date Time Source
EHWO Decoded METAR 2019/10/18 06:55 UTC NOAA

Woensdrecht, Netherlands (EHWO) 51-27N 004-20E 17M
Oct 18, 2019 - 02:55 AM EDT / 2019.10.18 0655 UTC
Wind: from the S (190 degrees) at 10 MPH (9 KT) (direction variable):0
Visibility: greater than 7 mile(s):0
Sky conditions: mostly cloudy
Weather: Cumulonimbus clouds observed
Temperature: 57 F (14 C)
Dew Point: 51 F (11 C)
Relative Humidity: 82%
Pressure (altimeter): 29.59 in. Hg (1002 hPa)
ob: EHWO 180655Z AUTO 19009KT 130V250 9999 FEW008 FEW015CB BKN019 BKN023 14/11 Q1002 WHT
cycle: 7

Station Type Date Time Source
EHWO TAF 2019/10/16 09:06 UTC NOAA

TAF EHWO 160806Z 1609/1621 17005KT 9999 SCT013 BKN016 BKN025
TEMPO 1609/1618 19012G22KT
TEMPO 1609/1621 4500 -DZRA SCT008 BKN012 PROB40
TEMPO 1610/1621 2000 DZRA FEW004 SCT006 BKN012

Example: see airport list